createdAt,value
2018-02-05T00:00:06.633Z,26.03
2018-02-05T00:02:41.101Z,26.07
2018-02-05T00:05:15.765Z,24.53
2018-02-05T00:07:50.068Z,20.97
2018-02-05T00:10:24.729Z,16.23
2018-02-05T00:12:58.654Z,24.43
2018-02-05T00:15:32.725Z,19.30
2018-02-05T00:18:06.455Z,27.03
2018-02-05T00:20:40.348Z,22.33
2018-02-05T00:23:14.589Z,16.67
2018-02-05T00:25:49.820Z,18.97
2018-02-05T00:28:24.135Z,19.97
2018-02-05T00:30:59.244Z,17.93
2018-02-05T00:33:34.490Z,17.33
2018-02-05T00:36:09.836Z,18.63
2018-02-05T00:38:43.862Z,15.73
2018-02-05T00:41:18.476Z,16.57
2018-02-05T00:43:52.480Z,18.67
2018-02-05T00:46:26.524Z,22.20
2018-02-05T00:49:00.431Z,17.70
2018-02-05T00:51:34.113Z,21.97
2018-02-05T00:54:09.091Z,17.10
2018-02-05T00:56:43.872Z,15.40
2018-02-05T00:59:17.898Z,16.87
2018-02-05T01:01:52.008Z,18.47
2018-02-05T01:04:25.855Z,16.60
2018-02-05T01:07:00.434Z,15.57
2018-02-05T01:09:34.444Z,20.27
2018-02-05T01:12:09.121Z,15.80
2018-02-05T01:14:43.275Z,18.97
2018-02-05T01:17:17.149Z,17.83
2018-02-05T01:19:51.015Z,17.60
2018-02-05T01:22:25.622Z,17.13
2018-02-05T01:24:59.920Z,17.30
2018-02-05T01:27:35.164Z,18.97
2018-02-05T01:30:10.394Z,18.80
2018-02-05T01:32:45.052Z,18.10
2018-02-05T01:35:19.940Z,19.80
2018-02-05T01:37:53.990Z,18.20
2018-02-05T01:40:29.408Z,20.13
2018-02-05T01:43:03.443Z,16.83
2018-02-05T01:45:37.200Z,17.70
2018-02-05T01:48:11.887Z,18.77
2018-02-05T01:50:45.915Z,16.87
2018-02-05T01:53:21.311Z,18.70
2018-02-05T01:55:56.249Z,17.10
2018-02-05T01:58:30.423Z,18.33
2018-02-05T02:01:04.268Z,19.30
2018-02-05T02:03:38.077Z,22.67
2018-02-05T02:06:12.560Z,20.40
2018-02-05T02:08:46.747Z,18.43
2018-02-05T02:11:20.426Z,17.97
2018-02-05T02:13:54.318Z,27.80
2018-02-05T02:16:28.835Z,22.17
2018-02-05T02:19:02.969Z,21.07
2018-02-05T02:21:37.420Z,23.47
2018-02-05T02:24:11.484Z,22.90
2018-02-05T02:26:45.998Z,22.80
2018-02-05T02:29:21.052Z,21.80
2018-02-05T02:31:55.629Z,21.33
2018-02-05T02:34:29.802Z,24.27
2018-02-05T02:37:04.503Z,22.20
2018-02-05T02:39:38.325Z,24.07
2018-02-05T02:42:13.137Z,21.67
2018-02-05T02:44:47.465Z,22.63
2018-02-05T02:47:22.908Z,22.97
2018-02-05T02:49:57.883Z,23.53
2018-02-05T02:52:33.225Z,23.20
2018-02-05T02:55:07.481Z,22.33
2018-02-05T02:57:42.161Z,22.03
2018-02-05T03:00:16.278Z,19.50
2018-02-05T03:02:50.825Z,21.97
2018-02-05T03:05:24.552Z,23.20
2018-02-05T03:07:59.111Z,22.50
2018-02-05T03:10:33.357Z,22.13
2018-02-05T03:13:07.698Z,22.63
2018-02-05T03:15:41.561Z,21.77
2018-02-05T03:18:15.230Z,18.10
2018-02-05T03:20:49.259Z,23.37
2018-02-05T03:23:24.280Z,24.00
2018-02-05T03:25:58.885Z,20.37
2018-02-05T03:28:32.738Z,19.10
2018-02-05T03:31:08.155Z,23.67
2018-02-05T03:33:42.097Z,17.97
2018-02-05T03:36:15.939Z,19.83
2018-02-05T03:38:49.894Z,18.53
2018-02-05T03:41:24.760Z,18.07
2018-02-05T03:43:58.599Z,18.07
2018-02-05T03:46:32.540Z,17.87
2018-02-05T03:49:06.510Z,17.00
2018-02-05T03:51:40.506Z,17.97
2018-02-05T03:54:14.232Z,16.53
2018-02-05T03:56:48.268Z,22.73
2018-02-05T03:59:22.072Z,19.77
2018-02-05T04:01:56.576Z,19.97
2018-02-05T04:04:30.481Z,18.37
2018-02-05T04:07:10.940Z,19.10
2018-02-05T04:09:45.945Z,19.57
2018-02-05T04:12:19.910Z,20.60
2018-02-05T04:14:53.593Z,21.10
2018-02-05T04:17:28.337Z,17.87
2018-02-05T04:20:02.111Z,20.93
2018-02-05T04:22:36.771Z,20.10
2018-02-05T04:25:11.247Z,17.80
2018-02-05T04:27:46.273Z,18.50
2018-02-05T04:30:20.207Z,17.80
2018-02-05T04:32:54.819Z,17.97
2018-02-05T04:35:28.745Z,18.20
2018-02-05T04:38:03.368Z,19.30
2018-02-05T04:40:38.263Z,18.40
2018-02-05T04:43:12.605Z,20.47
2018-02-05T04:45:47.124Z,20.00
2018-02-05T04:48:21.082Z,18.83
2018-02-05T04:50:54.761Z,17.37
2018-02-05T04:53:28.481Z,18.40
2018-02-05T04:56:03.464Z,17.53
2018-02-05T04:58:37.685Z,21.27
2018-02-05T05:01:11.480Z,17.70
2018-02-05T05:03:45.260Z,19.37
2018-02-05T05:06:19.836Z,17.73
2018-02-05T05:08:53.819Z,20.70
2018-02-05T05:11:28.441Z,19.90
2018-02-05T05:14:02.209Z,20.90
2018-02-05T05:16:35.910Z,19.63
2018-02-05T05:19:10.587Z,20.20
2018-02-05T05:21:45.487Z,18.63
2018-02-05T05:24:19.468Z,18.10
2018-02-05T05:26:54.046Z,17.37
2018-02-05T05:29:28.137Z,19.73
2018-02-05T05:32:02.776Z,18.63
2018-02-05T05:34:36.963Z,17.27
2018-02-05T05:37:10.720Z,18.80
2018-02-05T05:39:44.696Z,17.77
2018-02-05T05:42:19.325Z,18.60
2018-02-05T05:44:54.068Z,18.53
2018-02-05T05:47:28.133Z,16.77
2018-02-05T05:50:01.829Z,18.90
2018-02-05T05:52:35.746Z,19.03
2018-02-05T05:55:09.497Z,20.33
2018-02-05T05:57:43.415Z,17.40
2018-02-05T06:00:17.348Z,18.87
2018-02-05T06:02:51.241Z,18.87
2018-02-05T06:05:25.911Z,19.23
2018-02-05T06:08:00.342Z,20.87
2018-02-05T06:10:34.569Z,20.47
2018-02-05T06:13:10.028Z,19.80
2018-02-05T06:15:44.185Z,20.83
2018-02-05T06:18:18.044Z,18.63
2018-02-05T06:20:51.932Z,18.07
2018-02-05T06:23:25.618Z,21.77
2018-02-05T06:25:59.711Z,18.13
2018-02-05T06:28:34.301Z,21.27
2018-02-05T06:31:08.812Z,18.27
2018-02-05T06:33:42.741Z,19.70
2018-02-05T06:36:16.626Z,22.10
2018-02-05T06:38:50.473Z,19.83
2018-02-05T06:41:24.281Z,18.43
2018-02-05T06:43:58.268Z,20.70
2018-02-05T06:46:32.076Z,20.57
2018-02-05T06:49:05.884Z,19.53
2018-02-05T06:51:52.117Z,20.13
2018-02-05T06:54:38.974Z,18.67
2018-02-05T06:57:13.334Z,16.33
2018-02-05T06:59:46.991Z,19.07
2018-02-05T07:02:21.414Z,19.37
2018-02-05T07:04:55.457Z,19.80
2018-02-05T07:07:30.973Z,25.80
2018-02-05T07:10:05.559Z,18.23
2018-02-05T07:12:40.742Z,20.50
2018-02-05T07:15:14.787Z,19.77
2018-02-05T07:17:49.371Z,20.53
2018-02-05T07:20:24.277Z,21.33
2018-02-05T07:22:58.408Z,22.17
2018-02-05T07:25:33.139Z,28.73
2018-02-05T07:28:07.212Z,25.80
2018-02-05T07:30:41.113Z,25.33
2018-02-05T07:33:15.727Z,24.77
2018-02-05T07:35:49.433Z,27.07
2018-02-05T07:38:23.054Z,21.70
2018-02-05T07:40:56.675Z,31.17
2018-02-05T07:43:30.535Z,29.77
2018-02-05T07:46:05.308Z,25.00
2018-02-05T07:48:39.332Z,24.73
2018-02-05T07:51:13.858Z,25.10
2018-02-05T07:53:48.714Z,24.70
2018-02-05T07:56:23.351Z,26.17
2018-02-05T07:58:58.216Z,24.23
2018-02-05T08:01:32.713Z,23.87
2018-02-05T08:04:06.611Z,20.40
2018-02-05T08:06:40.380Z,25.90
2018-02-05T08:09:14.180Z,23.37
2018-02-05T08:11:47.968Z,21.73
2018-02-05T08:14:21.890Z,22.13
2018-02-05T08:16:57.410Z,23.43
2018-02-05T08:19:31.451Z,22.30
2018-02-05T08:22:05.237Z,22.23
2018-02-05T08:24:40.073Z,19.67
2018-02-05T08:27:14.002Z,22.67
2018-02-05T08:29:47.999Z,23.60
2018-02-05T08:32:22.595Z,18.83
2018-02-05T08:34:56.833Z,21.20
2018-02-05T08:37:31.336Z,24.13
2018-02-05T08:40:05.726Z,24.90
2018-02-05T08:42:40.194Z,21.17
2018-02-05T08:45:14.054Z,18.83
2018-02-05T08:47:48.020Z,18.67
2018-02-05T08:50:22.768Z,24.93
2018-02-05T08:52:56.699Z,20.80
2018-02-05T08:55:30.544Z,18.93
2018-02-05T08:58:04.278Z,18.00
2018-02-05T09:00:38.150Z,22.93
2018-02-05T09:03:12.177Z,22.00
2018-02-05T09:05:47.759Z,20.10
2018-02-05T09:08:21.487Z,21.33
2018-02-05T09:10:55.284Z,18.53
2018-02-05T09:13:29.010Z,20.73
2018-02-05T09:16:02.958Z,19.97
2018-02-05T09:18:37.676Z,20.97
2018-02-05T09:21:11.661Z,15.53
2018-02-05T09:23:45.401Z,18.53
2018-02-05T09:26:20.017Z,17.87
2018-02-05T09:28:54.855Z,15.70
2018-02-05T09:31:29.698Z,19.63
2018-02-05T09:34:04.372Z,22.47
2018-02-05T09:36:39.241Z,18.73
2018-02-05T09:39:13.280Z,20.53
2018-02-05T09:41:47.978Z,18.90
2018-02-05T09:44:22.047Z,19.33
2018-02-05T09:46:55.824Z,15.93
2018-02-05T09:49:30.442Z,20.17
2018-02-05T09:52:04.481Z,15.57
2018-02-05T09:54:38.221Z,16.03
2018-02-05T09:57:11.974Z,14.30
2018-02-05T09:59:45.768Z,17.37
2018-02-05T10:02:19.510Z,15.80
2018-02-05T10:04:54.146Z,17.80
2018-02-05T10:07:28.389Z,16.27
2018-02-05T10:10:02.179Z,17.00
2018-02-05T10:12:36.617Z,16.03
2018-02-05T10:15:10.507Z,16.93
2018-02-05T10:17:44.446Z,15.90
2018-02-05T10:20:18.184Z,38.07
2018-02-05T10:22:52.018Z,36.20
2018-02-05T10:25:25.934Z,25.07
2018-02-05T10:28:00.472Z,18.67
2018-02-05T10:30:34.482Z,20.03
2018-02-05T10:33:08.335Z,24.13
2018-02-05T10:38:32.968Z,30.33
2018-02-05T10:41:08.109Z,39.77
2018-02-05T10:43:42.182Z,39.07
2018-02-05T10:46:16.353Z,27.23
2018-02-05T10:48:50.302Z,49.73
2018-02-05T10:51:24.267Z,65.37
2018-02-05T10:53:58.598Z,35.93
2018-02-05T10:56:33.193Z,22.97
2018-02-05T10:59:07.405Z,29.17
2018-02-05T11:01:41.440Z,15.63
2018-02-05T11:04:15.788Z,16.60
2018-02-05T11:06:50.662Z,14.83
2018-02-05T11:09:25.146Z,16.10
2018-02-05T11:12:00.313Z,14.40
2018-02-05T11:14:34.391Z,13.13
2018-02-05T11:17:08.969Z,15.20
2018-02-05T11:19:43.718Z,14.73
2018-02-05T11:22:17.900Z,12.33
2018-02-05T11:24:51.720Z,14.47
2018-02-05T11:27:26.623Z,12.97
2018-02-05T11:30:01.994Z,16.87
2018-02-05T11:32:36.018Z,12.23
2018-02-05T11:35:10.721Z,14.13
2018-02-05T11:37:44.786Z,12.80
2018-02-05T11:40:18.553Z,12.63
2018-02-05T11:42:52.641Z,13.20
2018-02-05T11:45:26.815Z,10.73
2018-02-05T11:48:00.516Z,12.50
2018-02-05T11:50:34.402Z,15.67
2018-02-05T11:53:08.501Z,12.77
2018-02-05T11:55:43.015Z,14.37
2018-02-05T11:58:17.145Z,11.43
2018-02-05T12:00:50.986Z,10.97
2018-02-05T12:03:25.723Z,12.47
2018-02-05T12:06:01.089Z,13.23
2018-02-05T12:08:35.524Z,13.37
2018-02-05T12:11:09.460Z,13.63
2018-02-05T12:13:43.220Z,11.43
2018-02-05T12:16:17.193Z,11.70
2018-02-05T12:18:51.744Z,11.10
2018-02-05T12:21:25.965Z,12.00
2018-02-05T12:23:59.802Z,14.47
2018-02-05T12:26:33.688Z,11.90
2018-02-05T12:29:08.237Z,13.23
2018-02-05T12:31:43.041Z,10.90
2018-02-05T12:34:18.670Z,12.17
2018-02-05T12:36:53.044Z,11.47
2018-02-05T12:39:27.145Z,11.33
2018-02-05T12:42:00.853Z,11.47
2018-02-05T12:44:34.645Z,13.47
2018-02-05T12:47:09.378Z,11.93
2018-02-05T12:49:43.348Z,12.20
2018-02-05T12:52:17.261Z,11.43
2018-02-05T12:54:51.769Z,14.30
2018-02-05T12:57:26.097Z,11.00
2018-02-05T13:00:16.765Z,10.40
2018-02-05T13:02:57.319Z,14.07
2018-02-05T13:05:31.872Z,10.83
2018-02-05T13:08:06.124Z,11.70
2018-02-05T13:10:40.808Z,11.00
2018-02-05T13:13:15.476Z,10.63
2018-02-05T13:15:49.701Z,11.13
2018-02-05T13:18:24.734Z,13.53
2018-02-05T13:20:58.528Z,10.03
2018-02-05T13:23:32.465Z,14.93
2018-02-05T13:26:06.549Z,14.53
2018-02-05T13:28:41.434Z,10.67
2018-02-05T13:31:15.421Z,12.13
2018-02-05T13:33:49.611Z,10.63
2018-02-05T13:36:24.783Z,9.90
2018-02-05T13:38:59.380Z,12.10
2018-02-05T13:41:33.773Z,10.53
2018-02-05T13:44:07.645Z,10.03
2018-02-05T13:46:42.172Z,14.63
2018-02-05T13:49:17.146Z,11.73
2018-02-05T13:51:51.567Z,12.33
2018-02-05T13:54:25.323Z,11.70
2018-02-05T13:56:59.245Z,16.93
2018-02-05T13:59:33.096Z,11.10
2018-02-05T14:02:06.829Z,15.33
2018-02-05T14:04:40.899Z,11.83
2018-02-05T14:07:14.880Z,11.77
2018-02-05T14:09:49.842Z,13.27
2018-02-05T14:12:23.972Z,13.70
2018-02-05T14:14:58.076Z,14.83
2018-02-05T14:17:32.289Z,12.13
2018-02-05T14:20:06.604Z,15.10
2018-02-05T14:22:41.920Z,16.23
2018-02-05T14:25:16.061Z,13.27
2018-02-05T14:27:49.973Z,13.57
2018-02-05T14:30:26.934Z,11.17
2018-02-05T14:33:00.853Z,17.90
2018-02-05T14:35:34.950Z,15.10
2018-02-05T14:38:08.985Z,15.13
2018-02-05T14:40:42.801Z,13.60
2018-02-05T14:43:17.349Z,18.27
2018-02-05T14:45:51.765Z,15.77
2018-02-05T14:48:25.656Z,16.00
2018-02-05T14:51:00.455Z,14.17
2018-02-05T14:53:34.673Z,14.00
2018-02-05T14:56:10.220Z,13.70
2018-02-05T14:58:44.772Z,16.37
2018-02-05T15:01:18.801Z,16.00
2018-02-05T15:03:52.534Z,12.23
2018-02-05T15:06:26.396Z,11.83
2018-02-05T15:11:40.972Z,14.80
2018-02-05T15:14:14.685Z,17.93
2018-02-05T15:16:48.648Z,14.40
2018-02-05T15:19:22.591Z,14.07
2018-02-05T15:21:56.408Z,13.60
2018-02-05T15:24:30.432Z,14.17
2018-02-05T15:27:04.217Z,14.43
2018-02-05T15:29:38.899Z,16.27
2018-02-05T15:32:13.836Z,16.53
2018-02-05T15:34:49.044Z,20.67
2018-02-05T15:37:23.326Z,12.53
2018-02-05T15:39:57.009Z,17.10
2018-02-05T15:42:31.756Z,16.60
2018-02-05T15:45:05.938Z,18.33
2018-02-05T15:47:39.832Z,16.47
2018-02-05T15:50:14.163Z,15.73
2018-02-05T15:52:48.609Z,15.83
2018-02-05T15:55:22.318Z,22.30
2018-02-05T15:57:59.492Z,24.67
2018-02-05T16:00:34.225Z,19.47
2018-02-05T16:03:08.382Z,20.27
2018-02-05T16:05:42.252Z,18.90
2018-02-05T16:08:16.344Z,19.80
2018-02-05T16:10:50.481Z,18.73
2018-02-05T16:13:25.269Z,21.73
2018-02-05T16:15:59.300Z,24.40
2018-02-05T16:18:33.888Z,20.67
2018-02-05T16:21:07.895Z,18.50
2018-02-05T16:23:41.868Z,19.30
2018-02-05T16:26:16.405Z,25.77
2018-02-05T16:28:50.942Z,21.27
2018-02-05T16:31:24.857Z,20.50
2018-02-05T16:33:58.599Z,22.13
2018-02-05T16:36:33.270Z,19.43
2018-02-05T16:39:07.245Z,20.53
2018-02-05T16:41:41.188Z,18.70
2018-02-05T16:44:15.854Z,18.87
2018-02-05T16:46:49.833Z,17.97
2018-02-05T16:49:24.468Z,15.23
2018-02-05T16:51:58.908Z,20.27
2018-02-05T16:54:33.275Z,17.20
2018-02-05T16:57:07.909Z,18.40
2018-02-05T16:59:42.089Z,18.30
2018-02-05T17:02:16.568Z,15.63
2018-02-05T17:04:50.940Z,19.47
2018-02-05T17:07:25.024Z,20.53
2018-02-05T17:09:59.393Z,19.57
2018-02-05T17:12:33.032Z,17.97
2018-02-05T17:15:06.886Z,21.23
2018-02-05T17:17:40.965Z,21.57
2018-02-05T17:20:15.266Z,17.87
2018-02-05T17:22:49.736Z,20.50
2018-02-05T17:25:24.620Z,16.87
2018-02-05T17:27:58.818Z,18.10
2018-02-05T17:30:32.824Z,19.37
2018-02-05T17:33:06.825Z,17.27
2018-02-05T17:35:41.014Z,19.20
2018-02-05T17:38:15.512Z,18.37
2018-02-05T17:40:50.317Z,18.90
2018-02-05T17:43:24.466Z,17.93
2018-02-05T17:45:58.290Z,20.53
2018-02-05T17:48:33.150Z,21.27
2018-02-05T17:51:07.489Z,20.17
2018-02-05T17:53:42.393Z,13.87
2018-02-05T17:56:16.719Z,19.17
2018-02-05T17:58:51.181Z,19.60
2018-02-05T18:01:26.084Z,20.53
2018-02-05T18:04:01.250Z,17.47
2018-02-05T18:06:36.662Z,19.57
2018-02-05T18:09:11.464Z,19.50
2018-02-05T18:11:45.761Z,20.10
2018-02-05T18:14:19.598Z,19.33
2018-02-05T18:16:54.332Z,18.37
2018-02-05T18:19:28.636Z,17.87
2018-02-05T18:22:02.708Z,18.80
2018-02-05T18:24:36.409Z,17.47
2018-02-05T18:27:10.487Z,20.13
2018-02-05T18:29:44.368Z,18.97
2018-02-05T18:32:18.442Z,17.27
2018-02-05T18:34:52.376Z,20.67
2018-02-05T18:37:26.272Z,18.20
2018-02-05T18:40:00.926Z,17.67
2018-02-05T18:42:36.646Z,15.43
2018-02-05T18:45:11.148Z,20.73
2018-02-05T18:47:45.846Z,20.93
2018-02-05T18:50:20.769Z,20.63
2018-02-05T18:52:55.544Z,22.87
2018-02-05T18:55:30.541Z,20.77
2018-02-05T18:58:04.854Z,22.53
2018-02-05T19:00:49.545Z,22.27
2018-02-05T19:03:24.191Z,20.00
2018-02-05T19:05:58.035Z,16.20
2018-02-05T19:08:32.061Z,21.43
2018-02-05T19:11:06.128Z,19.07
2018-02-05T19:13:39.976Z,18.57
2018-02-05T19:16:14.052Z,20.03
2018-02-05T19:18:48.245Z,19.67
2018-02-05T19:21:22.688Z,22.03
2018-02-05T19:23:57.096Z,19.97
2018-02-05T19:26:30.909Z,19.53
2018-02-05T19:29:04.749Z,18.43
2018-02-05T19:31:38.775Z,18.10
2018-02-05T19:34:12.950Z,20.13
2018-02-05T19:36:47.097Z,19.87
2018-02-05T19:39:21.274Z,17.23
2018-02-05T19:41:55.252Z,20.60
2018-02-05T19:44:30.882Z,18.90
2018-02-05T19:47:04.679Z,17.60
2018-02-05T19:49:39.305Z,20.43
2018-02-05T19:52:13.277Z,17.87
2018-02-05T19:54:46.943Z,16.37
2018-02-05T19:57:20.858Z,19.13
2018-02-05T19:59:54.597Z,20.83
2018-02-05T20:02:29.016Z,20.83
2018-02-05T20:05:03.087Z,20.00
2018-02-05T20:07:37.023Z,17.00
2018-02-05T20:10:11.166Z,16.60
2018-02-05T20:12:45.599Z,20.87
2018-02-05T20:15:19.941Z,17.50
2018-02-05T20:17:53.833Z,18.20
2018-02-05T20:20:27.741Z,19.40
2018-02-05T20:23:02.464Z,16.20
2018-02-05T20:25:36.643Z,17.97
2018-02-05T20:28:10.533Z,21.97
2018-02-05T20:30:44.871Z,16.70
2018-02-05T20:33:18.688Z,18.70
2018-02-05T20:35:53.617Z,18.17
2018-02-05T20:38:28.719Z,16.33
2018-02-05T20:41:03.002Z,15.50
2018-02-05T20:43:36.793Z,17.97
2018-02-05T20:46:11.195Z,17.77
2018-02-05T20:48:44.854Z,23.53
2018-02-05T20:51:18.720Z,17.53
2018-02-05T20:53:53.027Z,19.03
2018-02-05T20:56:27.584Z,16.77
2018-02-05T20:59:01.814Z,20.53
2018-02-05T21:01:35.984Z,20.23
2018-02-05T21:04:09.849Z,17.60
2018-02-05T21:06:43.642Z,21.10
2018-02-05T21:09:17.976Z,20.63
2018-02-05T21:11:51.813Z,20.60
2018-02-05T21:14:25.516Z,21.40
2018-02-05T21:16:59.560Z,20.00
2018-02-05T21:19:33.240Z,19.70
2018-02-05T21:22:07.977Z,23.17
2018-02-05T21:24:42.240Z,20.17
2018-02-05T21:27:16.320Z,20.03
2018-02-05T21:29:56.896Z,17.30
2018-02-05T21:32:31.255Z,19.97
2018-02-05T21:35:05.276Z,15.50
2018-02-05T21:37:39.313Z,18.53
2018-02-05T21:40:14.428Z,20.93
2018-02-05T21:42:49.364Z,16.67
2018-02-05T21:45:23.486Z,17.77
2018-02-05T21:47:57.267Z,18.30
2018-02-05T21:50:31.084Z,20.90
2018-02-05T21:53:05.603Z,15.00
2018-02-05T21:55:39.641Z,21.53
2018-02-05T21:58:13.607Z,16.20
2018-02-05T22:00:48.144Z,18.30
2018-02-05T22:03:23.490Z,19.03
2018-02-05T22:05:57.779Z,18.43
2018-02-05T22:08:31.846Z,18.60
2018-02-05T22:11:06.300Z,19.60
2018-02-05T22:13:40.476Z,22.57
2018-02-05T22:16:14.366Z,18.93
2018-02-05T22:18:48.301Z,18.57
2018-02-05T22:21:22.777Z,15.37
2018-02-05T22:23:56.860Z,16.47
2018-02-05T22:26:31.376Z,15.53
2018-02-05T22:29:05.780Z,20.07
2018-02-05T22:31:39.742Z,18.40
2018-02-05T22:34:14.680Z,18.10
2018-02-05T22:36:48.908Z,15.33
2018-02-05T22:39:23.052Z,16.90
2018-02-05T22:41:57.019Z,18.30
2018-02-05T22:44:31.544Z,18.63
2018-02-05T22:47:05.760Z,24.60
2018-02-05T22:49:39.648Z,20.27
2018-02-05T22:52:14.254Z,20.07
2018-02-05T22:54:49.426Z,16.00
2018-02-05T22:57:23.538Z,17.80
2018-02-05T22:59:57.764Z,18.70
2018-02-05T23:02:31.869Z,14.20
2018-02-05T23:05:06.776Z,25.77
2018-02-05T23:07:41.160Z,23.03
2018-02-05T23:10:15.924Z,25.17
2018-02-05T23:12:49.981Z,20.77
2018-02-05T23:15:24.221Z,24.50
2018-02-05T23:17:58.800Z,21.57
2018-02-05T23:20:32.927Z,20.80
2018-02-05T23:23:07.513Z,23.47
2018-02-05T23:25:41.480Z,26.43
2018-02-05T23:28:19.207Z,20.87
2018-02-05T23:30:53.086Z,24.57
2018-02-05T23:33:27.024Z,19.60
2018-02-05T23:36:00.865Z,27.13
2018-02-05T23:38:35.000Z,22.63
2018-02-05T23:41:09.780Z,22.10
2018-02-05T23:43:44.700Z,22.73
2018-02-05T23:46:18.678Z,23.80
2018-02-05T23:48:52.628Z,20.57
2018-02-05T23:51:26.704Z,21.73
2018-02-05T23:54:00.893Z,23.23
2018-02-05T23:56:34.798Z,17.20
2018-02-05T23:59:08.766Z,19.60
